Time;durP1;ratioP1;P1;durP2;ratioP2;P2;SDS_P1;SDS_P2;PMS_P1;PMS_P2;Temp;Humidity;BMP_temperature;BMP_pressure;BME280_temperature;BME280_humidity;BME280_pressure;Samples;Min_cycle;Max_cycle;Signal;HPM_P1;HPM_P2
2023/10/31 00:00:35;;;;;;;2.03;1.83;;;11.50;99.90;;;;;;5064045;28;20770;-70
2023/10/31 00:03:02;;;;;;;2.20;1.77;;;11.50;99.90;;;;;;5059545;28;20419;-70
2023/10/31 00:05:29;;;;;;;2.25;2.05;;;11.60;99.90;;;;;;5063719;28;20775;-70
2023/10/31 00:07:55;;;;;;;2.70;2.50;;;11.50;99.90;;;;;;5066272;28;20601;-71
2023/10/31 00:10:22;;;;;;;2.60;2.40;;;11.50;99.90;;;;;;5064323;28;20530;-71
2023/10/31 00:12:49;;;;;;;2.83;2.63;;;11.60;99.90;;;;;;5057777;28;20438;-71
2023/10/31 00:15:17;;;;;;;3.00;2.80;;;11.50;99.90;;;;;;5066235;28;20416;-71
2023/10/31 00:17:44;;;;;;;3.83;3.50;;;11.50;99.90;;;;;;5061161;28;20412;-70
2023/10/31 00:20:11;;;;;;;3.50;3.30;;;11.50;99.90;;;;;;5062764;28;20412;-71
2023/10/31 00:22:37;;;;;;;3.60;3.40;;;11.50;99.90;;;;;;5064786;28;20432;-70
2023/10/31 00:25:05;;;;;;;3.80;3.50;;;11.60;99.90;;;;;;5058852;28;20538;-72
2023/10/31 00:27:32;;;;;;;3.67;3.38;;;11.60;99.90;;;;;;5055248;28;20868;-71
2023/10/31 00:29:59;;;;;;;4.25;3.95;;;11.60;99.90;;;;;;5066132;28;20409;-71
2023/10/31 00:32:27;;;;;;;4.10;3.80;;;11.50;99.90;;;;;;5056135;28;20946;-70
2023/10/31 00:34:53;;;;;;;4.30;3.90;;;11.50;99.90;;;;;;5062770;28;20434;-71
2023/10/31 00:37:20;;;;;;;4.40;4.10;;;11.60;99.90;;;;;;5056573;28;20413;-72
2023/10/31 00:39:47;;;;;;;3.80;3.50;;;11.60;99.90;;;;;;5063297;28;20431;-70
2023/10/31 00:42:14;;;;;;;3.80;3.50;;;11.50;99.90;;;;;;5059563;28;20480;-71
2023/10/31 00:44:41;;;;;;;2.90;2.70;;;11.60;99.90;;;;;;5064890;28;20874;-71
2023/10/31 00:47:08;;;;;;;3.30;2.88;;;11.50;99.90;;;;;;5061328;28;20431;-69
2023/10/31 00:49:36;;;;;;;3.00;2.67;;;11.50;99.90;;;;;;5058598;28;20431;-71
2023/10/31 00:52:03;;;;;;;2.80;2.50;;;11.50;99.90;;;;;;5060902;28;20408;-71
2023/10/31 00:54:30;;;;;;;3.90;2.53;;;11.40;99.90;;;;;;5058432;28;20444;-70
2023/10/31 00:56:57;;;;;;;2.75;2.40;;;11.40;99.90;;;;;;5064581;28;20431;-70
2023/10/31 00:59:23;;;;;;;2.97;2.50;;;11.40;99.90;;;;;;5066371;28;20431;-70
2023/10/31 01:01:50;;;;;;;3.85;2.70;;;11.40;99.90;;;;;;5059228;28;20471;-70
2023/10/31 01:04:17;;;;;;;3.40;2.60;;;11.40;99.90;;;;;;5062538;28;20407;-70
2023/10/31 01:06:45;;;;;;;3.40;2.65;;;11.30;99.90;;;;;;5067100;28;20411;-70
2023/10/31 01:09:13;;;;;;;2.55;2.35;;;11.30;99.90;;;;;;5063316;28;20431;-70
2023/10/31 01:11:39;;;;;;;3.53;2.60;;;11.30;99.90;;;;;;5056281;28;20775;-71
2023/10/31 01:14:06;;;;;;;3.50;2.28;;;11.30;99.90;;;;;;5069527;28;20771;-71
2023/10/31 01:16:33;;;;;;;3.15;2.50;;;11.30;99.90;;;;;;5063051;28;20438;-71
2023/10/31 01:19:00;;;;;;;3.97;2.40;;;11.20;99.90;;;;;;5057116;28;20444;-69
2023/10/31 01:21:26;;;;;;;3.33;2.20;;;11.10;99.90;;;;;;5060147;28;20502;-70
2023/10/31 01:23:54;;;;;;;3.42;2.70;;;11.10;99.90;;;;;;5066554;28;20454;-70
2023/10/31 01:26:21;;;;;;;2.90;2.60;;;10.90;99.90;;;;;;5063633;28;20439;-69
2023/10/31 01:28:48;;;;;;;2.80;2.50;;;10.90;99.90;;;;;;5056566;28;20435;-70
2023/10/31 01:31:14;;;;;;;3.53;2.50;;;10.80;99.90;;;;;;5058453;28;20915;-69
2023/10/31 01:33:41;;;;;;;4.22;2.60;;;10.80;99.90;;;;;;5054517;28;20443;-70
2023/10/31 01:36:10;;;;;;;3.15;2.55;;;10.70;99.90;;;;;;5060469;28;20447;-70
2023/10/31 01:38:36;;;;;;;3.30;2.50;;;10.70;99.90;;;;;;5061512;28;20913;-70
2023/10/31 01:41:05;;;;;;;2.92;2.28;;;10.60;99.90;;;;;;5064222;28;20435;-70
2023/10/31 01:43:33;;;;;;;2.95;2.50;;;10.70;99.90;;;;;;5062421;28;20480;-72
2023/10/31 01:46:00;;;;;;;3.08;2.35;;;10.60;99.90;;;;;;5062847;28;20450;-70
2023/10/31 01:48:29;;;;;;;2.67;2.20;;;10.60;99.90;;;;;;5059186;28;20907;-70
2023/10/31 01:50:57;;;;;;;3.03;2.50;;;10.60;99.90;;;;;;5057501;28;20412;-70
2023/10/31 01:53:25;;;;;;;3.20;2.30;;;10.50;99.90;;;;;;5064142;28;20439;-70
2023/10/31 01:55:52;;;;;;;3.00;2.60;;;10.50;99.90;;;;;;5062942;28;20412;-70
2023/10/31 01:58:22;;;;;;;3.08;2.70;;;10.40;99.90;;;;;;5055632;28;20427;-69
2023/10/31 02:00:49;;;;;;;4.00;2.80;;;10.40;99.90;;;;;;5057449;28;20543;-69
2023/10/31 02:03:16;;;;;;;4.63;2.80;;;10.40;99.90;;;;;;5053838;28;20925;-71
2023/10/31 02:05:43;;;;;;;4.07;2.70;;;10.40;99.90;;;;;;5066234;28;20418;-70
2023/10/31 02:08:10;;;;;;;4.13;2.67;;;10.50;99.90;;;;;;5062836;28;20470;-70
2023/10/31 02:10:36;;;;;;;3.55;2.63;;;10.40;99.90;;;;;;5061569;28;20586;-69
2023/10/31 02:13:11;;;;;;;3.50;2.60;;;10.50;99.90;;;;;;5057146;28;20435;-70
2023/10/31 02:15:39;;;;;;;4.20;2.30;;;10.50;99.90;;;;;;5064014;28;20443;-70
2023/10/31 02:18:07;;;;;;;4.85;2.40;;;10.50;99.90;;;;;;5058955;28;20466;-71
2023/10/31 02:20:33;;;;;;;2.30;2.00;;;10.40;99.90;;;;;;5051691;28;20502;-70
2023/10/31 02:23:02;;;;;;;3.80;2.50;;;10.40;99.90;;;;;;5061222;28;20426;-70
2023/10/31 02:25:29;;;;;;;3.17;2.55;;;10.30;99.90;;;;;;5057143;28;20440;-70
2023/10/31 02:27:55;;;;;;;4.10;2.30;;;10.30;99.90;;;;;;5057901;28;20894;-70
2023/10/31 02:30:22;;;;;;;3.65;2.13;;;10.30;99.90;;;;;;5060081;28;20907;-70
2023/10/31 02:32:49;;;;;;;2.28;1.90;;;10.20;99.90;;;;;;5055188;28;20411;-70
2023/10/31 02:35:17;;;;;;;3.10;2.10;;;10.20;99.90;;;;;;5058992;28;20464;-70
2023/10/31 02:37:44;;;;;;;2.72;1.95;;;10.20;99.90;;;;;;5049863;28;20963;-71
2023/10/31 02:40:13;;;;;;;3.40;1.80;;;10.20;99.90;;;;;;5058066;28;20431;-70
2023/10/31 02:42:40;;;;;;;3.42;2.20;;;10.20;99.90;;;;;;5060362;28;20431;-71
2023/10/31 02:45:08;;;;;;;3.22;2.15;;;10.10;99.90;;;;;;5056625;28;20415;-70
2023/10/31 02:47:34;;;;;;;4.05;2.40;;;10.10;99.90;;;;;;5053236;28;20439;-70
2023/10/31 02:50:01;;;;;;;3.08;1.90;;;10.10;99.90;;;;;;5055565;28;20452;-70
2023/10/31 02:52:28;;;;;;;3.13;2.03;;;10.10;99.90;;;;;;5058611;28;20896;-70
2023/10/31 02:54:55;;;;;;;4.55;1.98;;;10.10;99.90;;;;;;5064445;28;20435;-70
2023/10/31 02:57:23;;;;;;;3.20;2.10;;;10.10;99.90;;;;;;5063326;28;20865;-70
2023/10/31 02:59:49;;;;;;;3.45;1.80;;;10.10;99.90;;;;;;5062699;28;20439;-71
2023/10/31 03:02:16;;;;;;;4.13;2.10;;;10.00;99.90;;;;;;5060059;28;20433;-70
2023/10/31 03:04:43;;;;;;;2.95;1.60;;;10.00;99.90;;;;;;5056556;28;20433;-70
2023/10/31 03:07:10;;;;;;;3.53;1.90;;;10.10;99.90;;;;;;5059252;28;20461;-70
2023/10/31 03:09:36;;;;;;;1.90;1.80;;;10.00;99.90;;;;;;5058500;28;20429;-71
2023/10/31 03:12:03;;;;;;;2.42;1.55;;;10.10;99.90;;;;;;5062037;28;20488;-70
2023/10/31 03:14:31;;;;;;;4.57;2.20;;;10.00;99.90;;;;;;5071997;28;20421;-70
2023/10/31 03:16:58;;;;;;;2.53;1.70;;;10.00;99.90;;;;;;5066208;28;20453;-70
2023/10/31 03:19:25;;;;;;;3.72;1.52;;;10.00;99.90;;;;;;5060029;28;20521;-70
2023/10/31 03:21:51;;;;;;;2.28;1.50;;;10.00;99.90;;;;;;5063865;28;20418;-70
2023/10/31 03:24:18;;;;;;;2.58;1.77;;;10.00;99.90;;;;;;5064975;28;20433;-70
2023/10/31 03:26:45;;;;;;;4.50;2.00;;;9.90;99.90;;;;;;5067724;28;20518;-70
2023/10/31 03:29:12;;;;;;;2.33;1.30;;;9.90;99.90;;;;;;5059334;28;20524;-70
2023/10/31 03:31:40;;;;;;;3.67;1.88;;;10.00;99.90;;;;;;5059288;28;20433;-70
2023/10/31 03:34:07;;;;;;;2.60;1.50;;;10.00;99.90;;;;;;5056735;28;20663;-70
2023/10/31 03:36:33;;;;;;;1.70;1.20;;;10.10;99.90;;;;;;5068812;28;20440;-70
2023/10/31 03:39:00;;;;;;;8.53;1.80;;;10.10;99.90;;;;;;5068279;28;20446;-70
2023/10/31 03:41:27;;;;;;;2.50;1.50;;;10.10;99.90;;;;;;5065068;28;20423;-70
2023/10/31 03:43:53;;;;;;;2.92;1.27;;;10.20;99.90;;;;;;5067100;28;20426;-70
2023/10/31 03:46:20;;;;;;;1.92;1.27;;;10.20;99.90;;;;;;5059476;28;20909;-70
2023/10/31 03:48:48;;;;;;;2.35;1.20;;;10.20;99.90;;;;;;5066228;28;20475;-70
2023/10/31 03:51:15;;;;;;;3.00;1.05;;;10.20;99.90;;;;;;5054259;28;20427;-69
2023/10/31 03:53:42;;;;;;;2.50;1.10;;;10.30;99.90;;;;;;5066654;28;20877;-70
2023/10/31 03:56:08;;;;;;;3.70;1.10;;;10.30;99.90;;;;;;5068094;28;20886;-69
2023/10/31 03:58:35;;;;;;;1.92;1.08;;;10.30;99.90;;;;;;5068489;28;20431;-71
2023/10/31 04:01:02;;;;;;;1.73;1.08;;;10.30;99.90;;;;;;5064757;28;20434;-70
2023/10/31 04:03:29;;;;;;;1.70;1.00;;;10.30;99.90;;;;;;5063359;28;20940;-72
2023/10/31 04:05:57;;;;;;;2.20;1.00;;;10.30;99.90;;;;;;5060494;28;20431;-71
2023/10/31 04:08:23;;;;;;;1.60;0.90;;;10.40;99.90;;;;;;5063763;28;20444;-70
2023/10/31 04:10:50;;;;;;;2.60;1.00;;;10.40;99.90;;;;;;5054713;28;20410;-70
2023/10/31 04:13:17;;;;;;;1.30;0.80;;;10.40;99.90;;;;;;5070229;28;20975;-71
2023/10/31 04:15:44;;;;;;;2.42;1.13;;;10.40;99.90;;;;;;5061092;28;20440;-71
2023/10/31 04:18:10;;;;;;;1.70;1.00;;;10.50;99.90;;;;;;5064756;28;20444;-70
2023/10/31 04:20:37;;;;;;;2.70;1.10;;;10.50;99.90;;;;;;5070696;28;20853;-70
2023/10/31 04:23:05;;;;;;;1.98;1.00;;;10.60;99.90;;;;;;5063810;28;20428;-71
2023/10/31 04:25:32;;;;;;;1.58;0.98;;;10.50;99.90;;;;;;5063070;28;20437;-71
2023/10/31 04:27:59;;;;;;;2.15;0.85;;;10.60;99.90;;;;;;5062973;28;20901;-71
2023/10/31 04:30:26;;;;;;;1.50;0.90;;;10.60;99.90;;;;;;5059411;28;20451;-70
2023/10/31 04:32:53;;;;;;;1.47;0.90;;;10.60;99.90;;;;;;5066587;28;20502;-71
2023/10/31 04:35:19;;;;;;;1.80;0.82;;;10.70;99.90;;;;;;5067077;28;20747;-71
2023/10/31 04:37:46;;;;;;;1.70;0.88;;;10.70;99.90;;;;;;5067810;28;20415;-71
2023/10/31 04:40:15;;;;;;;1.77;1.00;;;10.70;99.90;;;;;;5055638;28;20429;-71
2023/10/31 04:42:41;;;;;;;5.10;1.00;;;10.70;99.90;;;;;;5064113;28;20431;-71
2023/10/31 04:45:09;;;;;;;1.20;0.80;;;10.70;99.90;;;;;;5050787;28;20418;-71
2023/10/31 04:47:36;;;;;;;1.67;1.00;;;10.70;99.90;;;;;;5065502;28;20506;-71
2023/10/31 04:50:03;;;;;;;1.40;0.90;;;10.70;99.90;;;;;;5066559;28;20403;-70
2023/10/31 04:52:30;;;;;;;1.70;1.10;;;10.70;99.90;;;;;;5066412;28;20407;-70
2023/10/31 04:54:57;;;;;;;1.42;0.98;;;10.70;99.90;;;;;;5064839;28;20932;-71
2023/10/31 04:57:25;;;;;;;2.50;1.00;;;10.70;99.90;;;;;;5051615;28;20429;-70
2023/10/31 04:59:54;;;;;;;1.58;1.10;;;10.70;99.90;;;;;;5061260;28;20434;-70
2023/10/31 05:02:22;;;;;;;1.73;1.20;;;10.80;99.90;;;;;;5064627;28;20412;-71
2023/10/31 05:04:50;;;;;;;1.50;1.20;;;10.80;99.90;;;;;;5065912;28;20854;-70
2023/10/31 05:07:17;;;;;;;1.50;1.15;;;10.80;99.90;;;;;;5065980;28;20423;-70
2023/10/31 05:09:44;;;;;;;1.50;1.10;;;10.80;99.90;;;;;;5065796;28;20456;-70
2023/10/31 05:12:11;;;;;;;1.90;1.20;;;10.90;99.90;;;;;;5062364;28;20442;-69
2023/10/31 05:14:40;;;;;;;1.80;1.30;;;10.90;99.90;;;;;;5048218;28;20783;-69
2023/10/31 05:17:07;;;;;;;2.35;1.67;;;10.90;99.90;;;;;;5065987;28;20430;-68
2023/10/31 05:19:34;;;;;;;1.63;1.30;;;10.90;99.90;;;;;;5066369;28;20450;-69
2023/10/31 05:22:00;;;;;;;2.60;1.80;;;10.90;99.90;;;;;;5063773;28;20779;-69
2023/10/31 05:24:27;;;;;;;1.40;1.25;;;10.90;99.90;;;;;;5065500;28;20403;-69
2023/10/31 05:26:54;;;;;;;2.03;1.70;;;10.90;99.90;;;;;;5074512;28;20513;-66
2023/10/31 05:29:21;;;;;;;2.50;1.50;;;10.90;99.90;;;;;;5053090;28;20422;-65
2023/10/31 05:31:49;;;;;;;2.08;1.45;;;10.90;99.90;;;;;;5056588;28;20433;-65
2023/10/31 05:34:15;;;;;;;2.38;1.85;;;10.90;99.90;;;;;;5055808;28;20606;-65
2023/10/31 05:36:42;;;;;;;2.70;1.80;;;10.90;99.90;;;;;;5064375;28;20762;-65
2023/10/31 05:39:09;;;;;;;1.80;1.70;;;11.00;99.90;;;;;;5061831;28;20454;-65
2023/10/31 05:41:36;;;;;;;2.97;1.95;;;11.00;99.90;;;;;;5053133;28;20600;-65
2023/10/31 05:44:03;;;;;;;2.35;1.90;;;10.90;99.90;;;;;;5058130;28;20462;-65
2023/10/31 05:46:30;;;;;;;2.03;1.73;;;10.90;99.90;;;;;;5053977;28;20429;-65
2023/10/31 05:48:58;;;;;;;2.30;1.90;;;10.90;99.90;;;;;;5060597;28;20456;-66
2023/10/31 05:51:26;;;;;;;1.80;1.70;;;10.90;99.90;;;;;;5060975;28;20450;-65
2023/10/31 05:53:53;;;;;;;2.05;1.55;;;10.80;99.90;;;;;;5054333;28;20519;-65
2023/10/31 05:56:19;;;;;;;1.90;1.50;;;10.80;99.90;;;;;;5065717;28;20421;-65
2023/10/31 05:58:46;;;;;;;2.00;1.70;;;10.90;99.90;;;;;;5061923;28;20414;-65
2023/10/31 06:01:13;;;;;;;2.05;1.60;;;10.90;99.90;;;;;;5063480;28;20435;-65
2023/10/31 06:03:43;;;;;;;3.10;1.70;;;10.90;99.90;;;;;;5053167;28;20418;-66
2023/10/31 06:06:11;;;;;;;1.90;1.60;;;10.90;99.90;;;;;;5057936;28;20850;-66
2023/10/31 06:08:38;;;;;;;2.42;1.70;;;10.90;99.90;;;;;;5061880;28;20500;-66
2023/10/31 06:11:05;;;;;;;2.10;1.60;;;10.90;99.90;;;;;;5054903;28;20821;-66
2023/10/31 06:13:32;;;;;;;2.30;1.70;;;10.90;99.90;;;;;;5064685;28;20434;-65
2023/10/31 06:16:00;;;;;;;2.22;1.77;;;10.90;99.90;;;;;;5061502;28;20443;-65
2023/10/31 06:18:27;;;;;;;1.90;1.80;;;11.00;99.90;;;;;;5057711;28;20429;-65
2023/10/31 06:20:54;;;;;;;2.30;1.80;;;11.00;99.90;;;;;;5057362;28;20429;-66
2023/10/31 06:23:22;;;;;;;2.35;2.15;;;11.00;99.90;;;;;;5062661;28;20499;-66
2023/10/31 06:25:49;;;;;;;2.10;1.90;;;11.00;99.90;;;;;;5059520;28;20493;-66
2023/10/31 06:28:15;;;;;;;2.30;2.00;;;11.00;99.90;;;;;;5059101;28;20855;-66
2023/10/31 06:30:42;;;;;;;2.20;2.00;;;11.00;99.90;;;;;;5064218;28;20411;-65
2023/10/31 06:33:10;;;;;;;2.85;2.40;;;11.00;99.90;;;;;;5064857;28;20412;-66
2023/10/31 06:35:37;;;;;;;2.60;2.40;;;11.00;99.90;;;;;;5058314;28;20606;-66
2023/10/31 06:38:04;;;;;;;3.30;2.30;;;11.00;99.90;;;;;;5055514;28;20774;-65
2023/10/31 06:40:32;;;;;;;2.80;2.25;;;11.00;99.90;;;;;;5062970;28;20431;-65
2023/10/31 06:42:59;;;;;;;2.88;2.60;;;10.90;99.90;;;;;;5052209;28;20422;-65
2023/10/31 06:45:25;;;;;;;3.10;2.90;;;10.90;99.90;;;;;;5063499;28;20459;-66
2023/10/31 06:47:52;;;;;;;2.90;2.70;;;10.90;99.90;;;;;;5062568;28;20806;-65
2023/10/31 06:50:19;;;;;;;3.30;3.00;;;10.90;99.90;;;;;;5063369;28;20898;-66
2023/10/31 06:52:46;;;;;;;3.55;3.25;;;10.90;99.90;;;;;;5055199;28;20429;-65
2023/10/31 06:55:13;;;;;;;3.60;3.30;;;10.90;99.90;;;;;;5054374;28;20439;-72
2023/10/31 06:57:42;;;;;;;3.70;3.40;;;10.90;99.90;;;;;;5057049;28;20413;-71
2023/10/31 07:00:10;;;;;;;3.30;3.00;;;11.00;99.90;;;;;;5056934;28;20510;-72
2023/10/31 07:02:36;;;;;;;4.13;3.10;;;11.10;99.90;;;;;;5060627;28;20766;-72
2023/10/31 07:05:04;;;;;;;3.70;3.40;;;11.10;99.90;;;;;;5063033;28;20417;-66
2023/10/31 07:07:32;;;;;;;3.70;3.40;;;11.10;99.90;;;;;;5046740;28;22439;-66
2023/10/31 07:09:59;;;;;;;4.10;3.60;;;11.00;99.90;;;;;;5062476;28;20431;-66
2023/10/31 07:12:26;;;;;;;3.67;3.35;;;11.00;99.90;;;;;;5062197;28;20733;-66
2023/10/31 07:14:54;;;;;;;3.63;3.00;;;11.00;99.90;;;;;;5067562;28;20420;-66
2023/10/31 07:17:20;;;;;;;3.80;3.40;;;11.10;99.90;;;;;;5060861;28;20545;-65
2023/10/31 07:19:47;;;;;;;3.20;2.90;;;11.10;99.90;;;;;;5066949;28;20408;-65
2023/10/31 07:22:15;;;;;;;3.30;3.00;;;11.10;99.90;;;;;;5058852;28;20427;-66
2023/10/31 07:24:42;;;;;;;3.50;3.20;;;11.10;99.90;;;;;;5060690;28;20538;-65
2023/10/31 07:27:09;;;;;;;3.30;3.00;;;11.10;99.90;;;;;;5063291;28;20447;-65
2023/10/31 07:29:36;;;;;;;3.20;2.80;;;11.10;99.90;;;;;;5055418;28;20435;-66
2023/10/31 07:32:04;;;;;;;3.60;3.20;;;11.10;99.90;;;;;;5054047;28;20522;-66
2023/10/31 07:34:31;;;;;;;3.20;2.90;;;11.10;99.90;;;;;;5053748;28;20806;-66
2023/10/31 07:36:58;;;;;;;3.40;3.10;;;11.10;99.90;;;;;;5054607;28;20433;-66
2023/10/31 07:39:24;;;;;;;3.40;3.10;;;11.10;99.90;;;;;;5055331;28;20419;-66
2023/10/31 07:41:51;;;;;;;3.50;3.30;;;11.10;99.90;;;;;;5059181;28;20427;-66
2023/10/31 07:44:18;;;;;;;4.45;3.38;;;11.10;99.90;;;;;;5054531;28;20431;-66
2023/10/31 07:46:44;;;;;;;3.53;3.22;;;11.10;99.90;;;;;;5051404;28;20429;-66
2023/10/31 07:49:12;;;;;;;4.30;3.50;;;11.10;99.90;;;;;;5057949;28;20442;-66
2023/10/31 07:51:39;;;;;;;3.78;3.40;;;11.10;99.90;;;;;;5060509;28;20907;-66
2023/10/31 07:54:09;;;;;;;4.70;3.17;;;11.10;99.90;;;;;;5059178;28;20805;-66
2023/10/31 07:56:36;;;;;;;3.60;3.30;;;11.10;99.90;;;;;;5057791;28;20433;-66
2023/10/31 07:59:03;;;;;;;3.30;2.57;;;11.10;99.90;;;;;;5062753;28;20546;-73
2023/10/31 08:01:29;;;;;;;3.97;3.10;;;11.10;99.90;;;;;;5055971;28;20461;-69
2023/10/31 08:03:56;;;;;;;4.13;3.28;;;11.10;99.90;;;;;;5056077;28;20423;-66
2023/10/31 08:06:24;;;;;;;3.90;2.90;;;11.10;99.90;;;;;;5064796;28;20438;-70
2023/10/31 08:08:51;;;;;;;3.78;2.70;;;11.10;99.90;;;;;;5064075;28;20431;-66
2023/10/31 08:11:18;;;;;;;6.55;3.92;;;11.30;99.90;;;;;;5059044;28;20503;-66
2023/10/31 08:13:44;;;;;;;5.40;3.90;;;11.40;99.90;;;;;;5065491;28;20442;-65
2023/10/31 08:16:11;;;;;;;6.35;3.05;;;11.50;99.90;;;;;;5058235;28;20427;-66
2023/10/31 08:18:38;;;;;;;10.73;3.80;;;11.50;99.90;;;;;;5064486;28;20924;-66
2023/10/31 08:21:05;;;;;;;5.70;3.60;;;11.70;99.90;;;;;;5060001;28;20943;-66
2023/10/31 08:23:35;;;;;;;6.78;3.28;;;11.80;99.90;;;;;;5047691;28;20432;-67
2023/10/31 08:26:01;;;;;;;8.02;3.20;;;12.00;99.90;;;;;;5061089;28;20433;-66
2023/10/31 08:28:28;;;;;;;10.75;3.90;;;12.10;99.90;;;;;;5062381;28;20900;-67
2023/10/31 08:30:55;;;;;;;4.50;2.70;;;12.20;99.90;;;;;;5065162;28;20408;-67
2023/10/31 08:33:22;;;;;;;3.80;2.40;;;12.30;99.90;;;;;;5064981;28;20434;-67
2023/10/31 08:35:48;;;;;;;3.90;2.28;;;12.30;99.90;;;;;;5066277;28;20869;-66
2023/10/31 08:38:15;;;;;;;8.18;3.20;;;12.40;99.90;;;;;;5066096;28;20424;-66
2023/10/31 08:40:44;;;;;;;4.70;2.50;;;12.40;99.90;;;;;;5065011;28;20423;-67
2023/10/31 08:43:11;;;;;;;3.85;2.50;;;12.40;99.90;;;;;;5064995;28;20439;-67
2023/10/31 08:45:38;;;;;;;3.70;2.70;;;12.40;99.90;;;;;;5061022;28;20415;-67
2023/10/31 08:48:05;;;;;;;3.13;2.70;;;12.30;99.90;;;;;;5058788;28;20936;-67
2023/10/31 08:50:32;;;;;;;3.28;2.60;;;12.30;99.90;;;;;;5056518;28;20411;-66
2023/10/31 08:52:58;;;;;;;2.90;2.70;;;12.30;99.90;;;;;;5064287;28;20551;-67
2023/10/31 08:55:25;;;;;;;2.90;2.60;;;12.50;99.90;;;;;;5062943;28;20439;-67
2023/10/31 08:57:53;;;;;;;3.42;2.50;;;12.80;99.90;;;;;;5064790;28;20446;-66
2023/10/31 09:00:20;;;;;;;3.20;2.85;;;13.10;99.90;;;;;;5058679;28;20487;-66
2023/10/31 09:02:47;;;;;;;3.10;2.33;;;13.20;99.90;;;;;;5058419;28;20506;-66
2023/10/31 09:05:14;;;;;;;3.45;2.70;;;13.40;99.90;;;;;;5059977;28;20426;-67
2023/10/31 09:07:40;;;;;;;2.95;2.50;;;13.50;99.90;;;;;;5055104;28;20432;-66
2023/10/31 09:10:08;;;;;;;4.80;2.70;;;13.80;99.90;;;;;;5059850;28;20411;-69
2023/10/31 09:12:35;;;;;;;3.85;2.47;;;14.10;99.90;;;;;;5059394;28;20429;-65
2023/10/31 09:15:03;;;;;;;3.40;2.60;;;14.30;99.90;;;;;;5057928;28;20441;-66
2023/10/31 09:17:30;;;;;;;3.42;2.50;;;14.60;99.00;;;;;;5070195;28;20480;-67
2023/10/31 09:19:56;;;;;;;2.80;2.17;;;14.60;98.70;;;;;;5062825;28;20471;-67
2023/10/31 09:22:27;;;;;;;2.63;2.30;;;14.50;97.30;;;;;;5047290;28;20439;-65
2023/10/31 09:24:54;;;;;;;3.17;2.50;;;14.30;98.10;;;;;;5063623;28;20441;-66
2023/10/31 09:27:20;;;;;;;3.08;2.20;;;14.10;98.40;;;;;;5058510;28;20543;-65
2023/10/31 09:29:47;;;;;;;4.75;2.30;;;14.10;98.10;;;;;;5064158;28;20408;-68
2023/10/31 09:32:16;;;;;;;2.03;1.83;;;14.00;98.10;;;;;;5053607;28;20448;-67
2023/10/31 09:34:42;;;;;;;2.03;1.83;;;13.70;97.70;;;;;;5060627;28;21039;-68
2023/10/31 09:37:09;;;;;;;2.30;1.80;;;13.40;98.50;;;;;;5050135;28;20444;-68
2023/10/31 09:39:36;;;;;;;2.10;1.80;;;13.20;99.40;;;;;;5062207;28;20431;-69
2023/10/31 09:42:03;;;;;;;2.93;2.23;;;13.10;99.70;;;;;;5058894;28;20439;-68
2023/10/31 09:44:30;;;;;;;2.95;2.00;;;13.10;99.90;;;;;;5057712;28;20900;-69
2023/10/31 09:46:58;;;;;;;2.97;1.80;;;13.10;99.90;;;;;;5055919;28;20421;-68
2023/10/31 09:49:26;;;;;;;2.40;1.70;;;13.20;99.20;;;;;;5055013;28;20438;-68
2023/10/31 09:51:53;;;;;;;2.22;1.58;;;13.10;99.90;;;;;;5060567;28;20733;-68
2023/10/31 09:54:20;;;;;;;2.95;1.63;;;13.20;98.80;;;;;;5061335;28;20432;-68
2023/10/31 09:56:47;;;;;;;2.42;1.63;;;13.10;99.20;;;;;;5057255;28;20429;-68
2023/10/31 09:59:15;;;;;;;1.77;1.20;;;13.10;98.70;;;;;;5053715;28;20431;-68
2023/10/31 10:01:42;;;;;;;2.38;1.60;;;13.10;99.50;;;;;;5053405;28;21082;-68
2023/10/31 10:04:08;;;;;;;2.20;1.60;;;13.10;99.50;;;;;;5058835;28;20424;-67
2023/10/31 10:06:40;;;;;;;6.05;1.98;;;13.20;99.00;;;;;;5057447;28;20919;-68
2023/10/31 10:09:08;;;;;;;2.38;1.23;;;13.30;98.00;;;;;;5047139;28;20429;-68
2023/10/31 10:11:35;;;;;;;2.83;1.20;;;13.40;98.20;;;;;;5048378;28;20439;-67
2023/10/31 10:14:02;;;;;;;4.70;1.70;;;13.40;98.00;;;;;;5055064;28;21009;-68
2023/10/31 10:16:31;;;;;;;2.25;1.10;;;13.30;97.70;;;;;;5056369;28;20435;-67
2023/10/31 10:18:57;;;;;;;1.70;1.05;;;13.20;97.70;;;;;;5058394;28;20445;-68
2023/10/31 10:21:24;;;;;;;2.05;1.10;;;13.20;98.90;;;;;;5055440;28;20467;-67
2023/10/31 10:23:54;;;;;;;2.08;1.15;;;13.20;98.60;;;;;;5052827;28;20433;-69
2023/10/31 10:26:25;;;;;;;2.67;1.20;;;13.20;97.80;;;;;;5062471;28;20431;-67
2023/10/31 10:28:52;;;;;;;2.63;1.38;;;13.20;98.20;;;;;;5056345;28;20447;-69
2023/10/31 10:31:19;;;;;;;2.17;1.08;;;13.40;98.60;;;;;;5053723;28;20518;-70
2023/10/31 10:33:46;;;;;;;2.90;1.10;;;13.50;96.30;;;;;;5057220;28;20442;-68
2023/10/31 10:36:15;;;;;;;4.07;1.50;;;13.50;95.80;;;;;;5051697;28;20850;-68
2023/10/31 10:38:47;;;;;;;2.58;0.80;;;13.60;95.40;;;;;;5052108;28;20425;-68
2023/10/31 10:41:19;;;;;;;2.58;0.90;;;13.70;95.50;;;;;;5049918;28;20431;-68
2023/10/31 10:43:48;;;;;;;3.90;1.00;;;13.70;94.60;;;;;;5049827;28;20429;-69
2023/10/31 10:46:18;;;;;;;2.25;0.80;;;13.60;94.20;;;;;;5058538;28;20430;-68
2023/10/31 10:48:47;;;;;;;3.20;1.00;;;13.60;94.40;;;;;;5046559;28;20442;-69
2023/10/31 10:51:22;;;;;;;1.20;0.70;;;13.60;93.90;;;;;;5059340;28;20415;-69
2023/10/31 10:53:51;;;;;;;1.90;0.73;;;13.60;93.60;;;;;;5055813;28;20607;-68
2023/10/31 10:56:26;;;;;;;3.80;1.10;;;13.60;94.00;;;;;;5056803;28;20584;-67
2023/10/31 10:59:01;;;;;;;2.60;1.00;;;13.60;94.80;;;;;;5058290;28;20424;-68
2023/10/31 11:01:28;;;;;;;1.83;0.90;;;13.70;94.60;;;;;;5054854;28;20424;-67
2023/10/31 11:03:56;;;;;;;1.13;0.65;;;13.80;93.80;;;;;;5052898;28;20442;-68
2023/10/31 11:06:23;;;;;;;3.00;1.25;;;13.80;93.70;;;;;;5054777;28;20548;-67
2023/10/31 11:08:51;;;;;;;4.35;1.30;;;13.80;93.60;;;;;;5053059;28;20846;-68
2023/10/31 11:11:20;;;;;;;1.30;0.80;;;13.80;93.70;;;;;;5052539;28;20897;-69
2023/10/31 11:13:47;;;;;;;2.05;0.90;;;13.90;94.30;;;;;;5050093;28;20432;-68
2023/10/31 11:16:19;;;;;;;2.97;1.00;;;14.00;94.00;;;;;;5057002;28;20435;-68
2023/10/31 11:18:47;;;;;;;2.20;0.80;;;14.00;93.80;;;;;;5055524;28;20483;-67
2023/10/31 11:21:13;;;;;;;3.08;1.00;;;14.00;94.00;;;;;;5054010;28;20444;-69
2023/10/31 11:23:42;;;;;;;2.42;1.00;;;14.00;93.60;;;;;;5058177;28;20415;-68
2023/10/31 11:28:45;;;;;;;1.90;0.90;;;14.10;93.90;;;;;;5054100;28;20429;-66
2023/10/31 11:31:12;;;;;;;2.00;0.88;;;14.20;94.70;;;;;;5066690;28;20419;-68
2023/10/31 11:33:42;;;;;;;1.90;1.00;;;14.30;93.70;;;;;;5072061;28;20439;-67
2023/10/31 11:36:11;;;;;;;1.60;0.70;;;14.20;93.20;;;;;;5070637;28;20492;-69
2023/10/31 11:38:39;;;;;;;1.50;0.70;;;14.20;92.90;;;;;;5072536;28;20411;-68
2023/10/31 11:41:08;;;;;;;1.40;0.80;;;14.10;92.20;;;;;;5070499;28;20865;-68
2023/10/31 11:43:53;;;;;;;2.42;0.80;;;14.10;92.70;;;;;;5055828;28;20436;-66
2023/10/31 11:46:20;;;;;;;2.05;0.85;;;14.00;93.20;;;;;;5067087;28;20415;-67
2023/10/31 11:48:49;;;;;;;1.50;0.88;;;14.00;93.00;;;;;;5071055;28;21131;-68
2023/10/31 11:51:16;;;;;;;2.00;0.80;;;14.00;93.20;;;;;;5062149;28;20428;-68
2023/10/31 11:53:44;;;;;;;1.33;0.75;;;14.10;93.30;;;;;;5066460;28;20430;-67
2023/10/31 11:56:11;;;;;;;2.90;1.10;;;14.00;92.90;;;;;;5057469;28;20432;-66
2023/10/31 11:58:38;;;;;;;1.48;0.90;;;14.00;93.20;;;;;;5062739;28;20419;-67
2023/10/31 12:01:08;;;;;;;1.58;0.90;;;14.00;93.00;;;;;;5068272;28;20431;-66
2023/10/31 12:03:39;;;;;;;2.20;1.10;;;14.00;93.40;;;;;;5063093;28;20423;-67
2023/10/31 12:06:07;;;;;;;2.00;1.20;;;14.00;93.30;;;;;;5070602;28;20412;-68
2023/10/31 12:08:35;;;;;;;2.20;0.90;;;14.10;93.70;;;;;;5063418;28;20442;-68
2023/10/31 12:11:10;;;;;;;4.50;1.30;;;14.20;92.60;;;;;;5063226;28;20436;-67
2023/10/31 12:13:38;;;;;;;2.78;1.02;;;14.20;92.10;;;;;;5067496;28;20427;-68
2023/10/31 12:16:08;;;;;;;3.60;1.40;;;14.20;92.50;;;;;;5066029;28;20427;-67
2023/10/31 12:18:35;;;;;;;2.00;0.93;;;14.30;92.40;;;;;;5070988;28;20922;-66
2023/10/31 12:21:03;;;;;;;2.80;1.20;;;14.40;92.70;;;;;;5063828;28;20524;-67
2023/10/31 12:23:30;;;;;;;4.65;1.40;;;14.40;92.30;;;;;;5070683;28;20431;-67
2023/10/31 12:25:57;;;;;;;2.10;0.80;;;14.60;91.90;;;;;;5069583;28;20438;-66
2023/10/31 12:28:25;;;;;;;1.88;0.82;;;14.70;91.50;;;;;;5063492;28;20427;-67
2023/10/31 12:30:54;;;;;;;2.40;0.80;;;14.60;91.20;;;;;;5068343;28;20442;-68
2023/10/31 12:33:24;;;;;;;3.45;1.63;;;14.50;91.30;;;;;;5070881;28;20474;-68
2023/10/31 12:35:52;;;;;;;5.57;1.20;;;14.50;91.60;;;;;;5067697;28;20711;-68
2023/10/31 12:38:20;;;;;;;2.93;1.00;;;14.70;91.40;;;;;;5070914;28;20904;-67
2023/10/31 12:40:47;;;;;;;2.00;0.90;;;15.00;92.20;;;;;;5068645;28;20434;-67
2023/10/31 12:43:14;;;;;;;3.10;1.20;;;15.50;90.00;;;;;;5062746;28;20427;-67
2023/10/31 12:45:41;;;;;;;3.30;1.15;;;15.90;89.60;;;;;;5068350;28;20436;-67
2023/10/31 12:48:09;;;;;;;2.08;1.10;;;16.20;84.00;;;;;;5069839;28;21063;-64
2023/10/31 12:50:40;;;;;;;2.55;0.90;;;16.20;82.70;;;;;;5071690;28;20423;-66